Time;durP1;ratioP1;P1;durP2;ratioP2;P2;SDS_P1;SDS_P2;PMS_P1;PMS_P2;Temp;Humidity;BMP_temperature;BMP_pressure;BME280_temperature;BME280_humidity;BME280_pressure;Samples;Min_cycle;Max_cycle;Signal;HPM_P1;HPM_P2
2022/04/07 00:01:29;;;;;;;3.15;1.77;;;10.90;99.90;;;;;;5071218;28;20216;-46
2022/04/07 00:03:55;;;;;;;3.38;1.80;;;10.90;99.90;;;;;;5072130;28;20201;-46
2022/04/07 00:06:20;;;;;;;2.95;1.80;;;10.80;99.90;;;;;;5072046;28;20169;-46
2022/04/07 00:08:46;;;;;;;4.15;1.50;;;10.80;99.90;;;;;;5071727;28;20199;-46
2022/04/07 00:11:11;;;;;;;3.15;1.90;;;10.80;99.90;;;;;;5072010;28;20162;-46
2022/04/07 00:13:37;;;;;;;1.67;1.55;;;10.80;99.90;;;;;;5070214;28;20177;-46
2022/04/07 00:16:03;;;;;;;2.38;1.55;;;10.70;99.90;;;;;;5071413;28;20216;-47
2022/04/07 00:18:29;;;;;;;1.52;1.33;;;10.70;99.90;;;;;;5071965;28;20176;-46
2022/04/07 00:20:55;;;;;;;3.95;1.40;;;10.70;99.90;;;;;;5071531;28;20219;-46
2022/04/07 00:23:21;;;;;;;3.45;1.45;;;10.80;99.90;;;;;;5071579;28;20182;-46
2022/04/07 00:25:47;;;;;;;1.33;1.23;;;10.70;99.90;;;;;;5071553;28;20170;-46
2022/04/07 00:28:13;;;;;;;1.58;1.45;;;10.70;99.90;;;;;;5071903;28;20193;-47
2022/04/07 00:30:43;;;;;;;2.92;2.00;;;10.70;99.90;;;;;;5071499;28;20201;-47
2022/04/07 00:33:08;;;;;;;2.05;1.42;;;10.70;99.90;;;;;;5071660;28;20227;-47
2022/04/07 00:35:34;;;;;;;3.30;1.90;;;10.70;99.90;;;;;;5071073;28;20371;-47
2022/04/07 00:38:00;;;;;;;1.88;1.30;;;10.70;99.90;;;;;;5071531;28;20174;-47
2022/04/07 00:40:26;;;;;;;3.55;1.55;;;10.60;99.90;;;;;;5071393;28;20534;-46
2022/04/07 00:42:52;;;;;;;1.83;1.20;;;10.60;99.90;;;;;;5071628;28;20249;-46
2022/04/07 00:45:20;;;;;;;2.05;1.42;;;10.60;99.90;;;;;;5071456;28;20166;-46
2022/04/07 00:47:47;;;;;;;2.05;1.40;;;10.60;99.90;;;;;;5071529;28;20169;-46
2022/04/07 00:50:15;;;;;;;2.60;1.83;;;10.60;99.90;;;;;;5071720;28;20635;-46
2022/04/07 00:52:43;;;;;;;1.58;1.20;;;10.60;99.90;;;;;;5071918;28;20205;-46
2022/04/07 00:55:10;;;;;;;3.58;1.48;;;10.70;99.90;;;;;;5071426;28;20173;-46
2022/04/07 00:57:38;;;;;;;2.92;1.30;;;10.60;99.90;;;;;;5071357;28;20622;-46
2022/04/07 01:00:05;;;;;;;9.75;1.67;;;10.60;99.90;;;;;;5073577;28;20165;-46
2022/04/07 01:02:30;;;;;;;1.73;1.08;;;10.60;99.90;;;;;;5074829;28;20737;-46
2022/04/07 01:04:57;;;;;;;2.45;1.25;;;10.60;99.90;;;;;;5074785;28;20248;-46
2022/04/07 01:07:24;;;;;;;2.20;1.10;;;10.60;99.90;;;;;;5075103;28;20205;-46
2022/04/07 01:09:50;;;;;;;1.20;1.05;;;10.60;99.90;;;;;;5074830;28;20162;-46
2022/04/07 01:12:16;;;;;;;2.92;1.10;;;10.60;99.90;;;;;;5074641;28;20213;-46
2022/04/07 01:15:02;;;;;;;1.77;1.08;;;10.60;99.90;;;;;;5074960;28;20158;-46
2022/04/07 01:17:28;;;;;;;2.25;1.35;;;10.60;99.90;;;;;;5074902;28;20197;-46
2022/04/07 01:19:54;;;;;;;3.28;1.35;;;10.60;99.90;;;;;;5074706;28;20162;-46
2022/04/07 01:22:20;;;;;;;2.28;1.10;;;10.60;99.90;;;;;;5074523;28;20253;-46
2022/04/07 01:24:47;;;;;;;1.42;1.23;;;10.60;99.90;;;;;;5074471;28;20571;-46
2022/04/07 01:27:13;;;;;;;1.70;1.30;;;10.60;99.90;;;;;;5074741;28;20253;-46
2022/04/07 01:29:39;;;;;;;4.20;1.30;;;10.60;99.90;;;;;;5074420;28;20619;-46
2022/04/07 01:32:15;;;;;;;2.92;1.15;;;10.60;99.90;;;;;;5074353;28;20231;-46
2022/04/07 01:34:41;;;;;;;1.10;1.00;;;10.60;99.90;;;;;;5074616;28;20193;-46
2022/04/07 01:37:08;;;;;;;1.70;1.30;;;10.60;99.90;;;;;;5074288;28;20228;-46
2022/04/07 01:39:35;;;;;;;3.05;1.20;;;10.70;99.90;;;;;;5074218;28;20227;-46
2022/04/07 01:42:01;;;;;;;1.95;1.20;;;10.70;99.90;;;;;;5074172;28;20174;-46
2022/04/07 01:44:27;;;;;;;3.03;1.40;;;10.70;99.90;;;;;;5074222;28;20163;-46
2022/04/07 01:46:54;;;;;;;4.68;1.52;;;10.70;99.90;;;;;;5074078;28;20216;-46
2022/04/07 01:49:22;;;;;;;3.47;1.10;;;10.70;99.90;;;;;;5074161;28;20162;-46
2022/04/07 01:51:49;;;;;;;2.83;1.23;;;10.70;99.90;;;;;;5073881;28;20198;-46
2022/04/07 01:54:16;;;;;;;2.45;1.30;;;10.60;99.90;;;;;;5073905;28;20170;-46
2022/04/07 01:56:42;;;;;;;4.72;1.38;;;10.60;99.90;;;;;;5074187;28;20634;-46
2022/04/07 01:59:09;;;;;;;2.85;1.60;;;10.70;99.90;;;;;;5073870;28;20530;-47
2022/04/07 02:01:35;;;;;;;1.35;1.02;;;10.60;99.90;;;;;;5073816;28;20216;-46
2022/04/07 02:04:02;;;;;;;0.98;0.90;;;10.60;99.90;;;;;;5073991;28;20215;-46
2022/04/07 02:06:27;;;;;;;2.15;1.13;;;10.70;99.90;;;;;;5073821;28;20177;-46
2022/04/07 02:08:54;;;;;;;5.45;1.10;;;10.70;99.90;;;;;;5073736;28;20245;-46
2022/04/07 02:11:22;;;;;;;2.50;1.27;;;10.70;99.90;;;;;;5073817;28;20170;-46
2022/04/07 02:13:48;;;;;;;1.75;0.95;;;10.70;99.90;;;;;;5073849;28;20182;-46
2022/04/07 02:16:14;;;;;;;4.07;0.93;;;10.70;99.90;;;;;;5074082;28;20578;-46
2022/04/07 02:18:40;;;;;;;2.55;1.00;;;10.70;99.90;;;;;;5073786;28;20215;-46
2022/04/07 02:21:07;;;;;;;1.45;0.77;;;10.70;99.90;;;;;;5073735;28;20265;-45
2022/04/07 02:23:40;;;;;;;2.50;1.00;;;10.60;99.90;;;;;;5072077;28;20174;-45
2022/04/07 02:26:12;;;;;;;2.65;1.00;;;10.60;99.90;;;;;;5073419;28;20174;-46
2022/04/07 02:28:39;;;;;;;2.70;1.30;;;10.60;99.90;;;;;;5073297;28;20635;-46
2022/04/07 02:31:05;;;;;;;2.33;1.10;;;10.70;99.90;;;;;;5073228;28;20239;-46
2022/04/07 02:33:31;;;;;;;1.75;0.95;;;10.60;99.90;;;;;;5073192;28;20204;-46
2022/04/07 02:35:56;;;;;;;0.93;0.80;;;10.60;99.90;;;;;;5073169;28;20169;-46
2022/04/07 02:38:21;;;;;;;0.80;0.63;;;10.70;99.90;;;;;;5073046;28;20382;-46
2022/04/07 02:40:47;;;;;;;1.67;0.98;;;10.60;99.90;;;;;;5073237;28;20170;-46
2022/04/07 02:43:13;;;;;;;2.85;0.90;;;10.60;99.90;;;;;;5073219;28;20162;-46
2022/04/07 02:45:38;;;;;;;1.35;0.68;;;10.60;99.90;;;;;;5072905;28;20181;-45
2022/04/07 02:48:04;;;;;;;0.80;0.80;;;10.60;99.90;;;;;;5072974;28;21165;-46
2022/04/07 02:50:29;;;;;;;0.80;0.80;;;10.60;99.90;;;;;;5072803;28;20173;-46
2022/04/07 02:52:55;;;;;;;0.63;0.45;;;10.60;99.90;;;;;;5072734;28;20205;-46
2022/04/07 02:55:22;;;;;;;2.50;1.13;;;10.60;99.90;;;;;;5072748;28;20220;-46
2022/04/07 02:57:47;;;;;;;1.75;0.93;;;10.60;99.90;;;;;;5072841;28;20170;-46
2022/04/07 03:00:13;;;;;;;3.88;1.02;;;10.60;99.90;;;;;;5072999;28;20188;-46
2022/04/07 03:02:39;;;;;;;3.42;1.48;;;10.60;99.90;;;;;;5072539;28;20213;-46
2022/04/07 03:05:05;;;;;;;5.55;1.58;;;10.60;99.90;;;;;;5072832;28;20220;-46
2022/04/07 03:07:30;;;;;;;3.10;1.00;;;10.60;99.90;;;;;;5072564;28;20166;-46
2022/04/07 03:09:56;;;;;;;2.25;1.60;;;10.60;99.90;;;;;;5072518;28;20177;-46
2022/04/07 03:12:21;;;;;;;1.42;1.13;;;10.60;99.90;;;;;;5071090;28;20213;-46
2022/04/07 03:14:47;;;;;;;4.05;1.25;;;10.60;99.90;;;;;;5072661;28;20162;-46
2022/04/07 03:17:12;;;;;;;2.40;1.27;;;10.60;99.90;;;;;;5072682;28;20177;-46
2022/04/07 03:19:38;;;;;;;7.75;1.52;;;10.60;99.90;;;;;;5072558;28;20166;-45
2022/04/07 03:22:04;;;;;;;1.60;1.08;;;10.60;99.90;;;;;;5071900;28;20537;-46
2022/04/07 03:24:29;;;;;;;3.00;1.33;;;10.60;99.90;;;;;;5072396;28;20166;-46
2022/04/07 03:26:55;;;;;;;1.67;1.10;;;10.60;99.90;;;;;;5072227;28;20166;-46
2022/04/07 03:29:21;;;;;;;2.38;1.38;;;10.60;99.90;;;;;;5072163;28;20224;-46
2022/04/07 03:31:48;;;;;;;2.05;1.17;;;10.60;99.90;;;;;;5072345;28;20205;-46
2022/04/07 03:34:13;;;;;;;2.72;1.25;;;10.60;99.90;;;;;;5071184;28;20208;-46
2022/04/07 03:36:39;;;;;;;4.60;1.70;;;10.60;99.90;;;;;;5072079;28;20166;-46
2022/04/07 03:39:04;;;;;;;5.25;2.42;;;10.60;99.90;;;;;;5072296;28;20173;-46
2022/04/07 03:41:30;;;;;;;2.40;1.23;;;10.60;99.90;;;;;;5072103;28;20519;-46
2022/04/07 03:43:56;;;;;;;4.22;1.48;;;10.60;99.90;;;;;;5072095;28;20174;-46
2022/04/07 03:46:22;;;;;;;1.05;0.93;;;10.60;99.90;;;;;;5071956;28;20166;-46
2022/04/07 03:48:49;;;;;;;1.30;0.90;;;10.60;99.90;;;;;;5072230;28;20174;-46
2022/04/07 03:51:15;;;;;;;3.42;1.50;;;10.60;99.90;;;;;;5071810;28;20161;-46
2022/04/07 03:53:41;;;;;;;1.73;1.00;;;10.60;99.90;;;;;;5072469;28;20177;-46
2022/04/07 03:56:06;;;;;;;5.00;1.40;;;10.60;99.90;;;;;;5070670;28;20630;-46
2022/04/07 03:58:32;;;;;;;6.72;1.52;;;10.60;99.90;;;;;;5071967;28;20204;-46
2022/04/07 04:00:58;;;;;;;6.82;1.10;;;10.70;99.90;;;;;;5072130;28;20166;-47
2022/04/07 04:03:24;;;;;;;3.00;1.17;;;10.70;99.90;;;;;;5071616;28;20217;-46
2022/04/07 04:05:49;;;;;;;3.45;1.27;;;10.70;99.90;;;;;;5072099;28;20174;-47
2022/04/07 04:08:15;;;;;;;1.52;0.73;;;10.70;99.90;;;;;;5071718;28;20180;-46
2022/04/07 04:10:40;;;;;;;1.70;1.20;;;10.70;99.90;;;;;;5071829;28;20573;-47
2022/04/07 04:13:06;;;;;;;3.40;1.10;;;10.70;99.90;;;;;;5071695;28;20731;-47
2022/04/07 04:15:31;;;;;;;3.47;1.13;;;10.70;99.90;;;;;;5071642;28;20169;-47
2022/04/07 04:17:57;;;;;;;1.20;0.73;;;10.70;99.90;;;;;;5071705;28;20177;-46
2022/04/07 04:20:22;;;;;;;1.00;0.93;;;10.80;99.90;;;;;;5071569;28;20256;-47
2022/04/07 04:22:48;;;;;;;1.08;0.70;;;10.80;99.90;;;;;;5071589;28;20187;-46
2022/04/07 04:25:13;;;;;;;0.73;0.55;;;10.70;99.90;;;;;;5071850;28;20166;-46
2022/04/07 04:27:40;;;;;;;1.65;0.88;;;10.80;99.90;;;;;;5071538;28;20630;-47
2022/04/07 04:30:07;;;;;;;1.15;0.85;;;10.80;99.90;;;;;;5070345;28;20690;-47
2022/04/07 04:32:32;;;;;;;2.50;0.85;;;10.80;99.90;;;;;;5071836;28;20210;-46
2022/04/07 04:34:58;;;;;;;1.95;0.95;;;10.80;99.90;;;;;;5073752;28;20650;-46
2022/04/07 04:37:26;;;;;;;2.13;0.73;;;10.90;99.90;;;;;;5075367;28;20535;-46
2022/04/07 04:39:53;;;;;;;2.17;0.90;;;10.80;99.90;;;;;;5075474;28;20162;-46
2022/04/07 04:42:19;;;;;;;4.30;1.10;;;10.90;99.90;;;;;;5075601;28;20181;-47
2022/04/07 04:44:45;;;;;;;1.02;1.00;;;10.90;99.90;;;;;;5075264;28;20170;-46
2022/04/07 04:47:11;;;;;;;3.05;0.90;;;10.90;99.90;;;;;;5075521;28;20196;-46
2022/04/07 04:49:40;;;;;;;0.73;0.73;;;10.90;99.90;;;;;;5075105;28;20194;-45
2022/04/07 04:52:07;;;;;;;2.42;1.30;;;10.90;99.90;;;;;;5075269;28;20293;-45
2022/04/07 04:54:33;;;;;;;3.45;0.70;;;10.90;99.90;;;;;;5075046;28;20256;-46
2022/04/07 04:56:58;;;;;;;2.83;1.10;;;10.90;99.90;;;;;;5075147;28;20177;-45
2022/04/07 04:59:24;;;;;;;2.88;1.08;;;10.90;99.90;;;;;;5074675;28;20693;-45
2022/04/07 05:01:49;;;;;;;3.53;1.00;;;10.90;99.90;;;;;;5074441;28;20224;-45
2022/04/07 05:04:15;;;;;;;0.98;0.60;;;10.90;99.90;;;;;;5074782;28;20170;-45
2022/04/07 05:06:40;;;;;;;1.15;0.75;;;10.80;99.90;;;;;;5074834;28;20265;-46
2022/04/07 05:09:06;;;;;;;0.98;0.60;;;10.80;99.90;;;;;;5073336;28;20208;-45
2022/04/07 05:11:33;;;;;;;3.83;0.90;;;10.80;99.90;;;;;;5074548;28;20245;-46
2022/04/07 05:13:59;;;;;;;1.00;0.65;;;10.80;99.90;;;;;;5074940;28;20173;-46
2022/04/07 05:16:24;;;;;;;0.85;0.80;;;10.80;99.90;;;;;;5074701;28;20181;-45
2022/04/07 05:18:50;;;;;;;1.40;0.80;;;10.70;99.90;;;;;;5074461;28;20188;-46
2022/04/07 05:21:16;;;;;;;0.52;0.50;;;10.70;99.90;;;;;;5074647;28;20528;-46
2022/04/07 05:23:42;;;;;;;0.70;0.70;;;10.70;99.90;;;;;;5073568;28;20166;-45
2022/04/07 05:26:07;;;;;;;1.80;0.55;;;10.70;99.90;;;;;;5074405;28;20181;-45
2022/04/07 05:28:33;;;;;;;4.20;0.98;;;10.70;99.90;;;;;;5074411;28;20173;-46
2022/04/07 05:30:58;;;;;;;5.68;1.48;;;10.70;99.90;;;;;;5074462;28;20581;-45
2022/04/07 05:33:24;;;;;;;2.42;0.75;;;10.70;99.90;;;;;;5074235;28;20674;-45
2022/04/07 05:35:49;;;;;;;1.05;0.65;;;10.70;99.90;;;;;;5074270;28;20193;-46
2022/04/07 05:38:15;;;;;;;1.90;0.75;;;10.70;99.90;;;;;;5072945;28;20630;-46
2022/04/07 05:40:40;;;;;;;2.92;0.60;;;10.70;99.90;;;;;;5074640;28;20182;-46
2022/04/07 05:43:06;;;;;;;4.70;1.20;;;10.70;99.90;;;;;;5074070;28;20170;-46
2022/04/07 05:45:32;;;;;;;2.40;0.80;;;10.80;99.90;;;;;;5073709;28;20215;-45
2022/04/07 05:47:57;;;;;;;1.52;0.90;;;10.80;99.90;;;;;;5074294;28;20530;-46
2022/04/07 05:50:23;;;;;;;1.10;0.80;;;10.70;99.90;;;;;;5074030;28;20166;-45
2022/04/07 05:52:48;;;;;;;0.82;0.82;;;10.70;99.90;;;;;;5073832;28;20206;-45
2022/04/07 05:55:14;;;;;;;1.85;0.75;;;10.80;99.90;;;;;;5073798;28;20630;-45
2022/04/07 05:57:39;;;;;;;2.05;0.73;;;10.70;99.90;;;;;;5074392;28;20216;-45
2022/04/07 06:00:11;;;;;;;3.72;0.80;;;10.70;99.90;;;;;;5073815;28;20173;-45
2022/04/07 06:02:37;;;;;;;1.67;0.75;;;10.70;99.90;;;;;;5073582;28;20267;-45
2022/04/07 06:05:07;;;;;;;6.53;0.95;;;10.70;99.90;;;;;;5073625;28;20581;-46
2022/04/07 06:07:32;;;;;;;1.17;0.70;;;10.60;99.90;;;;;;5073917;28;20240;-45
2022/04/07 06:09:58;;;;;;;1.30;0.60;;;10.60;99.90;;;;;;5073803;28;20623;-45
2022/04/07 06:12:23;;;;;;;1.73;0.82;;;10.50;99.90;;;;;;5073515;28;20240;-45
2022/04/07 06:14:49;;;;;;;1.02;0.90;;;10.50;99.90;;;;;;5073417;28;20220;-45
2022/04/07 06:17:14;;;;;;;1.65;0.95;;;10.50;99.90;;;;;;5073356;28;20220;-46
2022/04/07 06:19:40;;;;;;;1.23;0.75;;;10.50;99.90;;;;;;5073710;28;20200;-45
2022/04/07 06:22:07;;;;;;;2.75;0.70;;;10.50;99.90;;;;;;5073678;28;20511;-45
2022/04/07 06:24:33;;;;;;;1.85;0.95;;;10.40;99.90;;;;;;5073325;28;20684;-45
2022/04/07 06:26:59;;;;;;;0.93;0.80;;;10.50;99.90;;;;;;5073348;28;20172;-45
2022/04/07 06:29:24;;;;;;;1.20;0.90;;;10.40;99.90;;;;;;5073223;28;20241;-45
2022/04/07 06:31:50;;;;;;;1.65;0.90;;;10.50;99.90;;;;;;5073134;28;20672;-45
2022/04/07 06:34:15;;;;;;;2.50;1.17;;;10.50;99.90;;;;;;5072986;28;20181;-45
2022/04/07 06:36:41;;;;;;;1.58;0.95;;;10.60;99.90;;;;;;5073580;28;20162;-45
2022/04/07 06:39:06;;;;;;;0.98;0.65;;;10.60;99.90;;;;;;5072987;28;20249;-45
2022/04/07 06:41:33;;;;;;;0.45;0.45;;;10.70;99.90;;;;;;5073211;28;20183;-45
2022/04/07 06:43:59;;;;;;;2.65;0.93;;;10.70;99.90;;;;;;5073028;28;20169;-45
2022/04/07 06:46:25;;;;;;;3.35;1.08;;;10.70;99.90;;;;;;5072870;28;20158;-45
2022/04/07 06:48:50;;;;;;;1.10;0.77;;;10.70;99.90;;;;;;5072744;28;20172;-45
2022/04/07 06:51:16;;;;;;;1.63;0.77;;;10.70;99.90;;;;;;5072749;28;20169;-46
2022/04/07 06:53:42;;;;;;;1.17;0.47;;;10.80;99.90;;;;;;5072936;28;20206;-46
2022/04/07 06:56:08;;;;;;;1.10;0.88;;;10.80;99.90;;;;;;5071276;28;20267;-46
2022/04/07 06:58:34;;;;;;;4.78;1.80;;;10.80;99.90;;;;;;5072162;28;20789;-47
2022/04/07 07:01:00;;;;;;;5.22;2.10;;;10.80;99.90;;;;;;5071228;28;20269;-44
2022/04/07 07:03:27;;;;;;;2.67;1.40;;;10.80;99.90;;;;;;5072438;28;20296;-44
2022/04/07 07:05:58;;;;;;;2.60;1.75;;;10.90;99.90;;;;;;5072822;28;20169;-44
2022/04/07 07:08:24;;;;;;;1.15;0.73;;;10.90;99.90;;;;;;5072652;28;20212;-44
2022/04/07 07:10:51;;;;;;;1.63;1.30;;;10.90;99.90;;;;;;5072512;28;20202;-44
2022/04/07 07:13:20;;;;;;;2.55;1.30;;;11.00;99.90;;;;;;5072550;28;20210;-44
2022/04/07 07:15:46;;;;;;;1.05;0.93;;;11.00;99.90;;;;;;5072439;28;20638;-44
2022/04/07 07:18:11;;;;;;;4.07;1.33;;;11.00;99.90;;;;;;5072487;28;20541;-45
2022/04/07 07:20:37;;;;;;;1.58;0.95;;;11.10;99.90;;;;;;5072250;28;20162;-44
2022/04/07 07:23:03;;;;;;;0.85;0.85;;;11.10;99.90;;;;;;5072300;28;20178;-44
2022/04/07 07:25:31;;;;;;;2.28;0.70;;;11.20;99.90;;;;;;5072182;28;20161;-44
2022/04/07 07:27:57;;;;;;;0.80;0.70;;;11.20;99.90;;;;;;5072469;28;20182;-44
2022/04/07 07:30:23;;;;;;;1.48;1.08;;;11.20;99.90;;;;;;5072251;28;20173;-44
2022/04/07 07:32:51;;;;;;;1.98;1.05;;;11.20;99.90;;;;;;5072005;28;20206;-44
2022/04/07 07:35:20;;;;;;;1.67;0.85;;;11.20;99.90;;;;;;5071146;28;20596;-44
2022/04/07 07:38:01;;;;;;;1.98;1.20;;;11.30;99.90;;;;;;5072175;28;20231;-44
2022/04/07 07:40:30;;;;;;;1.73;0.82;;;11.30;99.90;;;;;;5072122;28;20172;-44
2022/04/07 07:42:56;;;;;;;1.45;0.98;;;11.30;99.90;;;;;;5072060;28;20198;-45
2022/04/07 07:45:26;;;;;;;1.10;1.00;;;11.30;99.90;;;;;;5072374;28;20166;-44
2022/04/07 07:47:55;;;;;;;0.77;0.52;;;11.20;99.90;;;;;;5072018;28;20631;-44
2022/04/07 07:50:22;;;;;;;1.58;0.50;;;11.30;99.90;;;;;;5072355;28;20174;-44
2022/04/07 07:52:47;;;;;;;0.40;0.20;;;11.30;99.90;;;;;;5057446;28;20206;-45
2022/04/07 07:55:14;;;;;;;1.05;0.50;;;11.30;99.90;;;;;;5052133;28;20181;-45
2022/04/07 07:57:39;;;;;;;0.22;0.22;;;11.40;99.90;;;;;;5057796;28;20587;-44
2022/04/07 08:00:08;;;;;;;0.32;0.32;;;11.40;99.90;;;;;;5071577;28;20194;-47
2022/04/07 08:02:38;;;;;;;1.25;0.60;;;11.50;99.90;;;;;;5071473;28;20715;-44
2022/04/07 08:05:05;;;;;;;0.90;0.10;;;11.50;99.90;;;;;;5071937;28;20583;-44
2022/04/07 08:07:30;;;;;;;1.92;0.63;;;11.50;99.90;;;;;;5071648;28;20174;-45
2022/04/07 08:09:56;;;;;;;1.75;0.45;;;11.50;99.90;;;;;;5075832;28;20257;-45
2022/04/07 08:12:26;;;;;;;0.10;0.10;;;11.50;99.90;;;;;;5075505;28;20209;-48
2022/04/07 08:14:52;;;;;;;0.20;0.20;;;11.40;99.90;;;;;;5075256;28;20165;-46
2022/04/07 08:17:21;;;;;;;0.20;0.20;;;11.50;99.90;;;;;;5074504;28;20166;-46
2022/04/07 08:19:47;;;;;;;0.47;0.45;;;11.50;99.90;;;;;;5075883;28;20166;-47
2022/04/07 08:22:13;;;;;;;0.50;0.50;;;11.60;99.90;;;;;;5075917;28;20169;-47
2022/04/07 08:24:39;;;;;;;0.15;0.15;;;11.70;99.90;;;;;;5075687;28;20206;-47
2022/04/07 08:27:05;;;;;;;1.75;0.88;;;11.80;99.90;;;;;;5075596;28;20172;-47
2022/04/07 08:29:31;;;;;;;0.35;0.20;;;11.90;99.90;;;;;;5075502;28;20170;-47
2022/04/07 08:31:56;;;;;;;0.47;0.17;;;12.00;99.90;;;;;;5075358;28;20314;-47
2022/04/07 08:34:22;;;;;;;0.13;0.13;;;12.20;99.90;;;;;;5075349;28;20190;-47
2022/04/07 08:36:48;;;;;;;1.45;0.20;;;12.20;99.90;;;;;;5075374;28;20682;-46
2022/04/07 08:39:14;;;;;;;0.35;0.25;;;12.20;99.90;;;;;;5075576;28;20177;-46
2022/04/07 08:41:42;;;;;;;0.20;0.20;;;12.20;99.90;;;;;;5075876;28;20170;-46
2022/04/07 08:44:07;;;;;;;14.60;0.70;;;12.20;99.90;;;;;;5075602;28;20170;-46
2022/04/07 08:46:33;;;;;;;0.10;0.10;;;12.10;99.90;;;;;;5075118;28;20575;-47
2022/04/07 08:49:02;;;;;;;0.55;0.10;;;12.00;99.90;;;;;;5075352;28;20170;-46
2022/04/07 08:51:28;;;;;;;0.32;0.25;;;11.90;99.90;;;;;;5075021;28;20166;-47
2022/04/07 08:53:54;;;;;;;0.20;0.20;;;11.90;99.90;;;;;;5075200;28;20581;-46
2022/04/07 08:56:19;;;;;;;0.20;0.03;;;12.00;99.90;;;;;;5074993;28;20181;-47
2022/04/07 08:58:45;;;;;;;0.57;0.22;;;12.10;99.90;;;;;;5074751;28;20169;-47
2022/04/07 09:01:11;;;;;;;0.43;0.30;;;12.10;99.90;;;;;;5074981;28;20299;-47
2022/04/07 09:03:36;;;;;;;0.30;0.17;;;12.20;99.90;;;;;;5074945;28;20248;-47
2022/04/07 09:06:03;;;;;;;0.10;0.10;;;12.30;99.90;;;;;;5074808;28;20247;-47
2022/04/07 09:08:33;;;;;;;0.50;0.50;;;12.50;99.90;;;;;;5074838;28;20177;-47
2022/04/07 09:11:00;;;;;;;1.13;0.32;;;12.60;99.90;;;;;;5074977;28;20165;-47
2022/04/07 09:13:39;;;;;;;0.70;0.70;;;12.70;99.90;;;;;;5074840;28;20206;-47
2022/04/07 09:16:13;;;;;;;0.08;0.03;;;12.70;99.90;;;;;;5074983;28;20161;-47
2022/04/07 09:18:43;;;;;;;0.10;0.10;;;12.70;99.90;;;;;;5074995;28;20162;-47
2022/04/07 09:21:27;;;;;;;3.20;0.38;;;12.90;99.90;;;;;;5074146;28;20215;-47
2022/04/07 09:23:56;;;;;;;0.10;0.10;;;13.00;99.90;;;;;;5074896;28;20177;-47
2022/04/07 09:26:22;;;;;;;1.85;0.22;;;13.10;99.90;;;;;;5074581;28;20170;-47
2022/04/07 09:28:47;;;;;;;0.73;0.43;;;13.10;99.90;;;;;;5074601;28;20532;-47
2022/04/07 09:31:15;;;;;;;1.50;0.43;;;13.10;99.90;;;;;;5074894;28;20177;-47
2022/04/07 09:33:41;;;;;;;3.20;0.80;;;12.90;99.90;;;;;;5074583;28;20537;-48
2022/04/07 09:36:10;;;;;;;1.67;0.25;;;12.90;99.90;;;;;;5074559;28;20165;-48
2022/04/07 09:38:37;;;;;;;0.35;0.35;;;12.80;99.90;;;;;;5074481;28;20188;-46
2022/04/07 09:41:12;;;;;;;0.43;0.30;;;12.80;99.90;;;;;;5074230;28;20194;-46
2022/04/07 09:43:45;;;;;;;0.95;0.80;;;12.80;99.90;;;;;;5074176;28;20169;-46
2022/04/07 09:46:12;;;;;;;0.70;0.52;;;12.60;99.90;;;;;;5074425;28;20158;-45
2022/04/07 09:48:39;;;;;;;1.63;0.40;;;12.60;99.90;;;;;;5074376;28;20177;-46
2022/04/07 09:51:08;;;;;;;1.08;0.40;;;12.60;99.90;;;;;;5074313;28;20166;-46
2022/04/07 09:53:38;;;;;;;0.25;0.25;;;12.60;99.90;;;;;;5074152;28;20209;-46
2022/04/07 09:56:06;;;;;;;0.47;0.47;;;12.50;99.90;;;;;;5073846;28;20555;-46
2022/04/07 09:58:33;;;;;;;0.50;0.50;;;12.40;99.90;;;;;;5073838;28;20166;-46
2022/04/07 10:01:02;;;;;;;1.35;0.47;;;12.20;99.90;;;;;;5074145;28;20174;-47
2022/04/07 10:03:29;;;;;;;3.10;0.70;;;12.10;99.90;;;;;;5073693;28;20253;-45
2022/04/07 10:05:56;;;;;;;1.65;0.82;;;12.10;99.90;;;;;;5073961;28;20547;-46
2022/04/07 10:08:23;;;;;;;1.75;0.55;;;12.10;99.90;;;;;;5073781;28;20699;-47
2022/04/07 10:10:49;;;;;;;2.92;1.00;;;12.00;99.90;;;;;;5073596;28;20174;-46
2022/04/07 10:13:14;;;;;;;3.85;1.90;;;11.90;99.90;;;;;;5073482;28;20224;-46
2022/04/07 10:15:40;;;;;;;1.35;1.08;;;11.60;99.90;;;;;;5073875;28;20575;-47
2022/04/07 10:18:09;;;;;;;2.15;0.85;;;11.30;99.90;;;;;;5073715;28;20166;-46
2022/04/07 10:20:39;;;;;;;1.67;1.10;;;11.30;99.90;;;;;;5073492;28;20173;-46
2022/04/07 10:23:26;;;;;;;1.55;1.45;;;11.20;99.90;;;;;;5073646;28;20184;-47
2022/04/07 10:25:53;;;;;;;0.85;0.80;;;11.10;99.90;;;;;;5073632;28;20170;-47
2022/04/07 10:28:21;;;;;;;0.98;0.82;;;11.20;99.90;;;;;;5073259;28;20649;-47
2022/04/07 10:30:49;;;;;;;5.70;0.77;;;11.30;99.90;;;;;;5073403;28;20178;-47
2022/04/07 10:33:41;;;;;;;1.92;0.77;;;11.30;99.90;;;;;;5072446;28;20275;-47
2022/04/07 10:36:12;;;;;;;1.70;1.25;;;11.30;99.90;;;;;;5073417;28;20311;-47
2022/04/07 10:38:40;;;;;;;1.05;0.82;;;11.50;99.90;;;;;;5073038;28;20170;-47
2022/04/07 10:41:06;;;;;;;0.90;0.90;;;11.70;99.90;;;;;;5073271;28;20201;-47
2022/04/07 10:43:37;;;;;;;1.75;0.90;;;11.90;99.90;;;;;;5072917;28;20619;-47
2022/04/07 10:46:06;;;;;;;0.80;0.80;;;12.00;99.90;;;;;;5073143;28;20178;-47
2022/04/07 10:48:33;;;;;;;1.35;0.85;;;11.90;99.90;;;;;;5073138;28;20181;-47
2022/04/07 10:50:58;;;;;;;1.10;1.02;;;11.80;99.90;;;;;;5073101;28;20500;-47
2022/04/07 10:53:36;;;;;;;0.98;0.60;;;11.70;99.90;;;;;;5072942;28;20213;-47
2022/04/07 10:56:13;;;;;;;2.28;0.90;;;11.80;99.90;;;;;;5073011;28;20193;-46
2022/04/07 10:58:39;;;;;;;0.68;0.65;;;12.40;99.90;;;;;;5073031;28;20165;-46
2022/04/07 11:01:05;;;;;;;0.40;0.40;;;12.40;99.90;;;;;;5072897;28;20162;-47
2022/04/07 11:03:31;;;;;;;1.80;0.60;;;12.40;99.90;;;;;;5072462;28;20225;-47
2022/04/07 11:06:06;;;;;;;0.77;0.50;;;12.30;99.90;;;;;;5072571;28;20527;-47
2022/04/07 11:08:32;;;;;;;3.10;0.73;;;12.40;99.90;;;;;;5072852;28;20176;-46
2022/04/07 11:10:58;;;;;;;2.03;0.80;;;12.40;99.90;;;;;;5072718;28;20169;-47
2022/04/07 11:13:58;;;;;;;0.70;0.50;;;12.60;99.90;;;;;;5072602;28;20255;-47
2022/04/07 11:16:30;;;;;;;0.70;0.50;;;12.60;99.90;;;;;;5072356;28;20208;-47
2022/04/07 11:19:08;;;;;;;0.82;0.22;;;12.80;99.90;;;;;;5072654;28;20226;-46
2022/04/07 11:22:03;;;;;;;0.47;0.45;;;12.90;99.90;;;;;;5072691;28;20174;-47
2022/04/07 11:24:33;;;;;;;0.80;0.65;;;12.90;99.90;;;;;;5072305;28;20234;-47
2022/04/07 11:27:42;;;;;;;0.50;0.47;;;12.90;99.90;;;;;;5072243;28;20177;-47
2022/04/07 11:30:09;;;;;;;1.38;0.25;;;13.10;99.90;;;;;;5072395;28;20161;-47
2022/04/07 11:32:36;;;;;;;1.27;0.40;;;13.00;99.90;;;;;;5072095;28;20201;-47
2022/04/07 11:35:15;;;;;;;1.33;0.32;;;13.10;99.90;;;;;;5072365;28;20174;-47
2022/04/07 11:37:42;;;;;;;5.65;0.32;;;13.30;99.90;;;;;;5072561;28;20205;-47
2022/04/07 11:40:08;;;;;;;1.13;0.75;;;13.30;99.90;;;;;;5072135;28;20220;-47
2022/04/07 11:42:34;;;;;;;0.22;0.22;;;13.40;99.90;;;;;;5071708;28;20537;-46
2022/04/07 11:45:01;;;;;;;0.25;0.25;;;13.50;99.90;;;;;;5072266;28;20170;-47
2022/04/07 11:47:31;;;;;;;2.50;1.00;;;13.50;99.90;;;;;;5072024;28;20158;-46
2022/04/07 11:49:56;;;;;;;0.73;0.55;;;13.50;99.90;;;;;;5072124;28;20166;-45
2022/04/07 11:52:26;;;;;;;1.80;0.60;;;13.70;99.90;;;;;;5071846;28;20228;-45
2022/04/07 11:54:56;;;;;;;3.67;0.90;;;13.60;99.90;;;;;;5072161;28;20195;-45
2022/04/07 11:57:24;;;;;;;0.98;0.57;;;13.70;99.90;;;;;;5071793;28;20173;-45
2022/04/07 11:59:50;;;;;;;1.42;0.85;;;13.70;99.90;;;;;;5072158;28;20247;-45
2022/04/07 12:02:21;;;;;;;2.67;0.80;;;13.80;99.90;;;;;;5071955;28;20249;-45
2022/04/07 12:04:55;;;;;;;1.98;0.47;;;13.80;99.90;;;;;;5071920;28;20197;-45
2022/04/07 12:07:21;;;;;;;1.75;0.70;;;14.00;99.90;;;;;;5071978;28;20165;-45
2022/04/07 12:09:47;;;;;;;2.25;0.93;;;14.10;99.90;;;;;;5071733;28;20584;-47
2022/04/07 12:12:13;;;;;;;2.95;1.15;;;14.10;99.90;;;;;;5072058;28;20194;-47
2022/04/07 12:14:42;;;;;;;2.15;0.88;;;14.20;99.90;;;;;;5072284;28;20524;-46
2022/04/07 12:17:09;;;;;;;2.95;1.13;;;14.20;99.90;;;;;;5071990;28;20166;-46
2022/04/07 12:19:47;;;;;;;3.03;0.93;;;14.30;99.90;;;;;;5071651;28;20170;-46
2022/04/07 12:22:15;;;;;;;3.50;1.15;;;14.40;99.90;;;;;;5072018;28;20249;-46
2022/04/07 12:25:02;;;;;;;2.10;1.30;;;14.40;99.90;;;;;;5071981;28;20242;-46
2022/04/07 12:27:30;;;;;;;1.08;0.80;;;14.30;99.90;;;;;;5071540;28;20174;-46
2022/04/07 12:29:57;;;;;;;2.30;0.95;;;14.10;99.90;;;;;;5071805;28;20178;-46
2022/04/07 12:32:23;;;;;;;4.13;1.20;;;13.70;99.90;;;;;;5071755;28;20201;-46
2022/04/07 12:34:52;;;;;;;3.40;1.25;;;13.90;99.90;;;;;;5071863;28;20166;-46
2022/04/07 12:37:36;;;;;;;1.25;0.88;;;14.10;99.90;;;;;;5071498;28;20654;-46
2022/04/07 12:40:03;;;;;;;2.25;1.10;;;14.20;99.90;;;;;;5071468;28;20651;-46
2022/04/07 12:42:29;;;;;;;0.85;0.85;;;14.40;99.90;;;;;;5071749;28;20227;-46
2022/04/07 12:45:06;;;;;;;5.90;1.27;;;14.30;99.90;;;;;;5071468;28;20170;-46
2022/04/07 12:47:32;;;;;;;7.15;1.58;;;14.00;99.90;;;;;;5071486;28;20240;-46
2022/04/07 12:50:01;;;;;;;3.15;1.10;;;14.20;99.90;;;;;;5071322;28;20635;-46